createdAt,value
2022-10-18T00:00:17.272Z,13.41
2022-10-18T00:02:43.841Z,13.45
2022-10-18T00:05:10.362Z,13.34
2022-10-18T00:07:36.915Z,13.17
2022-10-18T00:10:05.240Z,13.26
2022-10-18T00:12:36.726Z,13.29
2022-10-18T00:15:05.892Z,13.22
2022-10-18T00:17:38.053Z,13.30
2022-10-18T00:20:06.285Z,13.27
2022-10-18T00:22:35.553Z,13.17
2022-10-18T00:25:02.097Z,13.13
2022-10-18T00:27:30.242Z,13.10
2022-10-18T00:29:57.460Z,13.04
2022-10-18T00:32:24.411Z,13.05
2022-10-18T00:34:50.978Z,13.03
2022-10-18T00:37:18.533Z,13.10
2022-10-18T00:39:45.628Z,13.00
2022-10-18T00:42:17.144Z,12.92
2022-10-18T00:44:43.651Z,13.05
2022-10-18T00:47:12.901Z,12.93
2022-10-18T00:49:45.914Z,13.03
2022-10-18T00:52:27.267Z,12.92
2022-10-18T00:54:55.773Z,12.82
2022-10-18T00:57:22.564Z,12.77
2022-10-18T00:59:49.203Z,12.82
2022-10-18T01:02:18.313Z,12.87
2022-10-18T01:04:48.549Z,12.87
2022-10-18T01:07:27.450Z,12.92
2022-10-18T01:10:38.845Z,12.92
2022-10-18T01:13:29.915Z,12.87
2022-10-18T01:16:30.278Z,12.79
2022-10-18T01:19:19.663Z,12.85
2022-10-18T01:21:59.670Z,12.79
2022-10-18T01:24:36.577Z,12.82
2022-10-18T01:27:12.246Z,12.80
2022-10-18T01:30:12.244Z,12.66
2022-10-18T01:32:50.677Z,12.70
2022-10-18T01:35:22.466Z,12.70
2022-10-18T01:37:50.974Z,12.61
2022-10-18T01:40:22.010Z,12.64
2022-10-18T01:42:49.694Z,12.48
2022-10-18T01:45:17.022Z,12.45
2022-10-18T01:47:45.568Z,12.43
2022-10-18T01:50:12.785Z,12.53
2022-10-18T01:52:50.526Z,12.47
2022-10-18T01:55:18.417Z,12.51
2022-10-18T01:58:16.885Z,12.61
2022-10-18T02:00:44.449Z,12.40
2022-10-18T02:03:22.569Z,12.59
2022-10-18T02:05:59.897Z,12.47
2022-10-18T02:08:42.762Z,12.61
2022-10-18T02:11:13.025Z,12.54
2022-10-18T02:14:00.356Z,12.60
2022-10-18T02:16:35.943Z,12.54
2022-10-18T02:19:10.639Z,12.52
2022-10-18T02:21:40.846Z,12.52
2022-10-18T02:24:08.585Z,12.32
2022-10-18T02:26:35.661Z,12.40
2022-10-18T02:29:02.461Z,12.53
2022-10-18T02:31:45.693Z,12.48
2022-10-18T02:34:20.235Z,12.37
2022-10-18T02:36:52.891Z,12.45
2022-10-18T02:39:28.354Z,12.36
2022-10-18T02:41:56.685Z,12.30
2022-10-18T02:44:23.428Z,12.31
2022-10-18T02:46:50.008Z,12.22
2022-10-18T02:49:16.649Z,12.34
2022-10-18T02:51:43.192Z,12.34
2022-10-18T02:54:10.167Z,12.35
2022-10-18T02:56:36.651Z,12.23
2022-10-18T02:59:04.976Z,12.33
2022-10-18T03:01:33.047Z,12.18
2022-10-18T03:03:59.598Z,12.19
2022-10-18T03:06:26.095Z,12.11
2022-10-18T03:08:52.602Z,12.24
2022-10-18T03:11:19.160Z,12.26
2022-10-18T03:13:45.701Z,12.12
2022-10-18T03:16:12.809Z,12.19
2022-10-18T03:18:39.308Z,12.13
2022-10-18T03:21:07.209Z,12.04
2022-10-18T03:23:34.326Z,11.96
2022-10-18T03:26:01.386Z,12.05
2022-10-18T03:28:28.095Z,11.87
2022-10-18T03:31:00.710Z,11.96
2022-10-18T03:33:27.282Z,12.06
2022-10-18T03:35:53.897Z,12.00
2022-10-18T03:38:20.487Z,11.79
2022-10-18T03:40:47.020Z,11.90
2022-10-18T03:43:13.617Z,12.06
2022-10-18T03:45:40.600Z,11.98
2022-10-18T03:48:07.286Z,11.97
2022-10-18T03:50:34.013Z,11.91
2022-10-18T03:53:00.538Z,11.90
2022-10-18T03:55:27.402Z,12.00
2022-10-18T03:57:54.019Z,11.98
2022-10-18T04:00:20.695Z,11.92
2022-10-18T04:02:50.704Z,11.80
2022-10-18T04:05:20.195Z,11.77
2022-10-18T04:07:46.775Z,11.65
2022-10-18T04:10:13.312Z,11.86
2022-10-18T04:12:39.912Z,11.80
2022-10-18T04:15:07.071Z,11.91
2022-10-18T04:17:34.478Z,11.92
2022-10-18T04:20:01.208Z,11.75
2022-10-18T04:22:27.769Z,11.77
2022-10-18T04:24:54.327Z,11.75
2022-10-18T04:27:20.828Z,11.69
2022-10-18T04:29:47.358Z,11.76
2022-10-18T04:32:13.883Z,11.76
2022-10-18T04:34:40.488Z,11.80
2022-10-18T04:37:07.072Z,11.66
2022-10-18T04:39:33.551Z,11.77
2022-10-18T04:42:00.053Z,11.67
2022-10-18T04:44:26.655Z,11.72
2022-10-18T04:46:53.170Z,11.71
2022-10-18T04:49:20.198Z,11.66
2022-10-18T04:51:46.749Z,11.69
2022-10-18T04:54:13.284Z,11.69
2022-10-18T04:56:39.807Z,11.78
2022-10-18T04:59:06.332Z,11.79
2022-10-18T05:01:32.898Z,11.68
2022-10-18T05:03:59.375Z,11.74
2022-10-18T05:06:25.949Z,11.76
2022-10-18T05:08:52.530Z,11.69
2022-10-18T05:11:19.099Z,11.75
2022-10-18T05:13:47.312Z,11.70
2022-10-18T05:16:16.715Z,11.72
2022-10-18T05:18:43.308Z,11.60
2022-10-18T05:21:10.164Z,11.60
2022-10-18T05:23:36.673Z,11.59
2022-10-18T05:26:05.143Z,11.63
2022-10-18T05:28:40.821Z,11.68
2022-10-18T05:31:09.883Z,11.65
2022-10-18T05:33:37.688Z,11.74
2022-10-18T05:36:04.597Z,11.77
2022-10-18T05:38:31.417Z,11.76
2022-10-18T05:40:59.102Z,11.82
2022-10-18T05:43:28.919Z,11.78
2022-10-18T05:45:56.143Z,11.81
2022-10-18T05:48:22.718Z,11.93
2022-10-18T05:50:49.253Z,11.93
2022-10-18T05:53:35.146Z,11.93
2022-10-18T05:56:03.948Z,12.00
2022-10-18T05:58:30.555Z,12.01
2022-10-18T06:01:05.109Z,12.11
2022-10-18T06:03:31.933Z,12.17
2022-10-18T06:06:10.098Z,12.22
2022-10-18T06:08:38.011Z,12.25
2022-10-18T06:11:09.667Z,12.23
2022-10-18T06:13:40.427Z,12.36
2022-10-18T06:16:07.241Z,12.40
2022-10-18T06:18:34.344Z,12.39
2022-10-18T06:21:00.954Z,12.43
2022-10-18T06:23:28.437Z,12.54
2022-10-18T06:26:02.726Z,12.56
2022-10-18T06:28:30.000Z,12.59
2022-10-18T06:30:57.772Z,12.64
2022-10-18T06:33:24.718Z,12.66
2022-10-18T06:35:59.951Z,12.63
2022-10-18T06:38:27.941Z,12.73
2022-10-18T06:40:55.598Z,12.76
2022-10-18T06:43:22.556Z,12.70
2022-10-18T06:45:50.091Z,12.80
2022-10-18T06:50:58.217Z,12.93
2022-10-18T06:53:26.530Z,12.91
2022-10-18T06:55:59.227Z,12.94
2022-10-18T06:58:25.710Z,12.82
2022-10-18T07:00:52.237Z,12.98
2022-10-18T07:03:18.872Z,12.97
2022-10-18T07:05:45.340Z,12.93
2022-10-18T07:08:11.901Z,13.05
2022-10-18T07:10:38.437Z,13.13
2022-10-18T07:13:27.251Z,13.11
2022-10-18T07:16:12.820Z,13.23
2022-10-18T07:18:45.324Z,13.27
2022-10-18T07:21:14.222Z,13.27
2022-10-18T07:23:43.288Z,13.31
2022-10-18T07:26:17.301Z,13.40
2022-10-18T07:28:46.419Z,13.42
2022-10-18T07:31:13.701Z,13.51
2022-10-18T07:33:40.346Z,13.49
2022-10-18T07:36:08.884Z,13.56
2022-10-18T07:38:36.234Z,13.56
2022-10-18T07:41:06.519Z,13.70
2022-10-18T07:43:33.712Z,13.76
2022-10-18T07:46:05.726Z,13.82
2022-10-18T07:48:32.719Z,13.84
2022-10-18T07:51:00.698Z,13.92
2022-10-18T07:53:28.177Z,13.91
2022-10-18T07:56:04.698Z,14.03
2022-10-18T07:58:34.326Z,14.07
2022-10-18T08:01:06.260Z,14.13
2022-10-18T08:03:33.608Z,14.10
2022-10-18T08:06:00.325Z,14.19
2022-10-18T08:08:27.489Z,14.29
2022-10-18T08:10:54.240Z,14.30
2022-10-18T08:13:22.126Z,14.33
2022-10-18T08:15:48.630Z,14.43
2022-10-18T08:18:15.166Z,14.47
2022-10-18T08:20:45.637Z,14.57
2022-10-18T08:23:12.532Z,14.57
2022-10-18T08:25:39.136Z,14.72
2022-10-18T08:28:06.916Z,14.81
2022-10-18T08:30:35.179Z,14.93
2022-10-18T08:33:02.411Z,15.08
2022-10-18T08:35:28.952Z,15.25
2022-10-18T08:37:55.517Z,15.29
2022-10-18T08:40:22.116Z,15.41
2022-10-18T08:43:05.813Z,15.54
2022-10-18T08:45:42.247Z,15.72
2022-10-18T08:48:21.761Z,15.86
2022-10-18T08:50:49.663Z,16.09
2022-10-18T08:53:29.765Z,16.22
2022-10-18T08:56:25.822Z,16.36
2022-10-18T08:58:52.429Z,16.52
2022-10-18T09:01:54.170Z,16.64
2022-10-18T09:04:32.912Z,16.74
2022-10-18T09:07:38.556Z,16.87
2022-10-18T09:10:16.296Z,17.00
2022-10-18T09:12:52.774Z,17.14
2022-10-18T09:15:39.340Z,17.26
2022-10-18T09:18:17.667Z,17.36
2022-10-18T09:20:57.683Z,17.41
2022-10-18T09:23:46.191Z,17.45
2022-10-18T09:26:21.844Z,17.53
2022-10-18T09:29:13.528Z,17.56
2022-10-18T09:31:52.418Z,17.66
2022-10-18T09:34:36.556Z,17.69
2022-10-18T09:37:03.669Z,17.78
2022-10-18T09:39:35.322Z,17.91
2022-10-18T09:42:07.813Z,18.00
2022-10-18T09:44:56.555Z,18.06
2022-10-18T09:50:02.770Z,18.23
2022-10-18T09:52:51.219Z,18.30
2022-10-18T09:55:23.981Z,18.41
2022-10-18T09:57:55.634Z,18.48
2022-10-18T10:00:28.023Z,18.45
2022-10-18T10:02:54.972Z,18.59
2022-10-18T10:05:21.547Z,18.66
2022-10-18T10:07:48.800Z,18.71
2022-10-18T10:10:25.650Z,18.74
2022-10-18T10:13:22.764Z,18.82
2022-10-18T10:15:55.489Z,18.84
2022-10-18T10:18:30.109Z,18.94
2022-10-18T10:21:03.269Z,18.99
2022-10-18T10:23:31.583Z,19.03
2022-10-18T10:26:01.638Z,19.08
2022-10-18T10:28:43.653Z,19.11
2022-10-18T10:31:37.469Z,19.13
2022-10-18T10:34:19.319Z,19.19
2022-10-18T10:36:54.261Z,19.27
2022-10-18T10:39:24.181Z,19.32
2022-10-18T10:42:00.151Z,19.31
2022-10-18T10:44:36.755Z,19.36
2022-10-18T10:47:04.088Z,19.42
2022-10-18T10:49:45.832Z,19.48
2022-10-18T10:52:28.933Z,19.49
2022-10-18T10:55:30.821Z,19.53
2022-10-18T10:57:47.453Z,19.60
2022-10-18T11:00:35.975Z,19.64
2022-10-18T11:03:27.848Z,19.65
2022-10-18T11:05:57.836Z,-141.75
2022-10-18T11:08:28.575Z,-141.75
2022-10-18T11:11:22.146Z,-141.75
2022-10-18T11:14:13.531Z,19.63
2022-10-18T11:16:55.569Z,19.81
2022-10-18T11:19:56.272Z,19.89
2022-10-18T11:22:32.325Z,19.92
2022-10-18T11:24:59.134Z,19.84
2022-10-18T11:27:40.344Z,19.93
2022-10-18T11:30:44.339Z,19.98
2022-10-18T11:33:16.611Z,20.01
2022-10-18T11:35:54.662Z,19.84
2022-10-18T11:38:27.162Z,20.06
2022-10-18T11:41:00.786Z,20.07
2022-10-18T11:44:01.635Z,20.12
2022-10-18T11:46:54.417Z,20.13
2022-10-18T11:49:48.758Z,20.16
2022-10-18T11:52:21.371Z,20.16
2022-10-18T11:55:12.212Z,20.19
2022-10-18T11:58:03.414Z,20.20
2022-10-18T12:00:32.985Z,20.22
2022-10-18T12:03:19.743Z,20.23
2022-10-18T12:05:48.330Z,20.24
2022-10-18T12:08:18.729Z,20.26
2022-10-18T12:11:06.738Z,20.29
2022-10-18T12:13:43.461Z,20.34
2022-10-18T12:16:11.120Z,20.37
2022-10-18T12:18:48.431Z,20.41
2022-10-18T12:21:23.180Z,20.36
2022-10-18T12:24:18.640Z,20.40
2022-10-18T12:26:48.565Z,20.43
2022-10-18T12:29:30.479Z,20.47
2022-10-18T12:32:07.750Z,20.45
2022-10-18T12:34:43.413Z,20.46
2022-10-18T12:37:09.877Z,20.54
2022-10-18T12:39:58.491Z,20.56
2022-10-18T12:42:33.481Z,20.59
2022-10-18T12:45:25.147Z,20.59
2022-10-18T12:47:52.381Z,20.55
2022-10-18T12:50:39.973Z,20.63
2022-10-18T12:53:12.361Z,20.65
2022-10-18T12:58:22.220Z,20.71
2022-10-18T13:00:48.887Z,20.72
2022-10-18T13:03:16.694Z,20.74
2022-10-18T13:05:53.843Z,20.77
2022-10-18T13:08:27.915Z,20.78
2022-10-18T13:11:12.948Z,20.82
2022-10-18T13:13:51.694Z,20.86
2022-10-18T13:16:30.371Z,20.85
2022-10-18T13:19:03.254Z,20.87
2022-10-18T13:21:42.257Z,20.88
2022-10-18T13:24:28.034Z,20.91
2022-10-18T13:26:59.175Z,20.91
2022-10-18T13:29:36.786Z,20.92
2022-10-18T13:32:31.039Z,20.92
2022-10-18T13:34:57.863Z,20.88
2022-10-18T13:37:25.641Z,20.88
2022-10-18T13:40:21.480Z,20.97
2022-10-18T13:42:48.008Z,20.94
2022-10-18T13:45:33.173Z,20.96
2022-10-18T13:48:47.754Z,20.95
2022-10-18T13:51:25.603Z,20.93
2022-10-18T13:53:52.057Z,20.95
2022-10-18T13:56:27.422Z,20.93
2022-10-18T13:59:18.518Z,20.94
2022-10-18T14:02:11.373Z,20.85
2022-10-18T14:05:25.020Z,20.91
2022-10-18T14:08:11.185Z,20.87
2022-10-18T14:11:01.751Z,20.87
2022-10-18T14:14:04.652Z,20.86
2022-10-18T14:16:47.891Z,20.84
2022-10-18T14:19:25.657Z,20.79
2022-10-18T14:22:09.391Z,20.82
2022-10-18T14:24:40.499Z,20.75
2022-10-18T14:27:21.280Z,20.79
2022-10-18T14:29:49.159Z,20.77
2022-10-18T14:32:31.272Z,20.71
2022-10-18T14:35:27.202Z,20.72
2022-10-18T14:37:47.927Z,20.72
2022-10-18T14:40:31.567Z,20.73
2022-10-18T14:43:12.779Z,20.71
2022-10-18T14:45:41.543Z,20.64
2022-10-18T14:48:22.041Z,20.68
2022-10-18T14:51:01.591Z,20.66
2022-10-18T14:53:43.218Z,20.66
2022-10-18T14:56:21.975Z,20.63
2022-10-18T14:58:48.836Z,20.55
2022-10-18T15:01:18.010Z,20.56
2022-10-18T15:03:44.934Z,20.63
2022-10-18T15:06:18.778Z,20.58
2022-10-18T15:08:49.052Z,20.60
2022-10-18T15:11:16.716Z,20.58
2022-10-18T15:13:53.983Z,20.57
2022-10-18T15:16:25.032Z,20.48
2022-10-18T15:19:01.618Z,20.53
2022-10-18T15:21:28.327Z,20.47
2022-10-18T15:23:55.573Z,20.48
2022-10-18T15:26:29.557Z,20.49
2022-10-18T15:29:01.447Z,20.41
2022-10-18T15:31:37.144Z,20.44
2022-10-18T15:34:25.503Z,20.39
2022-10-18T15:36:54.782Z,20.28
2022-10-18T15:39:24.260Z,20.38
2022-10-18T15:41:55.898Z,20.34
2022-10-18T15:44:46.288Z,20.36
2022-10-18T15:47:13.264Z,20.35
2022-10-18T15:49:46.097Z,20.35
2022-10-18T15:52:21.731Z,20.34
2022-10-18T15:57:20.445Z,20.29
2022-10-18T15:59:57.956Z,20.29
2022-10-18T16:02:24.696Z,20.27
2022-10-18T16:04:51.398Z,20.09
2022-10-18T16:07:17.948Z,20.22
2022-10-18T16:09:44.410Z,20.24
2022-10-18T16:12:10.999Z,20.17
2022-10-18T16:14:37.527Z,20.09
2022-10-18T16:17:06.521Z,20.10
2022-10-18T16:19:34.143Z,20.06
2022-10-18T16:22:06.121Z,19.97
2022-10-18T16:24:33.102Z,19.94
2022-10-18T16:26:59.668Z,19.97
2022-10-18T16:29:28.598Z,19.92
2022-10-18T16:31:58.171Z,19.87
2022-10-18T16:34:27.073Z,19.81
2022-10-18T16:36:53.689Z,19.75
2022-10-18T16:39:21.732Z,19.73
2022-10-18T16:41:48.449Z,19.71
2022-10-18T16:44:16.378Z,19.61
2022-10-18T16:46:43.276Z,19.60
2022-10-18T16:51:54.136Z,19.59
2022-10-18T16:54:20.989Z,19.49
2022-10-18T16:56:49.847Z,19.44
2022-10-18T16:59:31.134Z,19.49
2022-10-18T17:01:57.846Z,19.35
2022-10-18T17:04:24.489Z,19.34
2022-10-18T17:06:52.640Z,19.40
2022-10-18T17:09:19.173Z,19.35
2022-10-18T17:11:45.704Z,19.32
2022-10-18T17:14:12.196Z,19.27
2022-10-18T17:16:46.697Z,18.29
2022-10-18T17:19:17.207Z,19.24
2022-10-18T17:21:43.734Z,19.21
2022-10-18T17:24:10.618Z,19.17
2022-10-18T17:26:37.097Z,19.10
2022-10-18T17:29:05.943Z,19.09
2022-10-18T17:31:32.997Z,19.01
2022-10-18T17:34:01.806Z,19.07
2022-10-18T17:36:30.108Z,19.09
2022-10-18T17:38:57.128Z,18.99
2022-10-18T17:41:23.717Z,18.99
2022-10-18T17:43:50.253Z,19.00
2022-10-18T17:46:17.934Z,18.97
2022-10-18T17:48:44.601Z,18.94
2022-10-18T17:51:13.728Z,18.90
2022-10-18T17:53:41.540Z,18.88
2022-10-18T17:56:08.433Z,18.89
2022-10-18T17:58:35.419Z,18.87
2022-10-18T18:01:10.925Z,18.85
2022-10-18T18:03:37.529Z,18.79
2022-10-18T18:06:22.005Z,18.77
2022-10-18T18:08:49.759Z,18.73
2022-10-18T18:11:17.089Z,18.69
2022-10-18T18:13:43.628Z,18.66
2022-10-18T18:16:14.751Z,18.60
2022-10-18T18:18:41.674Z,18.62
2022-10-18T18:21:08.349Z,18.40
2022-10-18T18:23:34.949Z,18.43
2022-10-18T18:26:01.546Z,18.45
2022-10-18T18:28:28.108Z,18.45
2022-10-18T18:30:54.616Z,18.39
2022-10-18T18:33:21.173Z,18.34
2022-10-18T18:35:58.056Z,18.37
2022-10-18T18:38:25.758Z,18.34
2022-10-18T18:41:12.690Z,18.32
2022-10-18T18:43:41.359Z,18.27
2022-10-18T18:46:08.740Z,18.16
2022-10-18T18:48:36.458Z,18.24
2022-10-18T18:51:04.945Z,18.24
2022-10-18T18:53:34.695Z,18.10
2022-10-18T18:56:09.009Z,18.15
2022-10-18T18:58:37.749Z,18.15
2022-10-18T19:01:13.704Z,18.14
2022-10-18T19:03:40.643Z,18.08
2022-10-18T19:06:09.885Z,18.09
2022-10-18T19:08:38.352Z,18.10
2022-10-18T19:11:09.085Z,18.10
2022-10-18T19:13:36.167Z,18.09
2022-10-18T19:16:20.219Z,18.09
2022-10-18T19:18:55.006Z,18.08
2022-10-18T19:21:23.080Z,18.03
2022-10-18T19:23:50.314Z,17.97
2022-10-18T19:26:27.431Z,18.02
2022-10-18T19:28:54.534Z,17.97
2022-10-18T19:31:21.616Z,17.86
2022-10-18T19:33:58.992Z,17.94
2022-10-18T19:36:27.036Z,17.94
2022-10-18T19:38:53.526Z,17.88
2022-10-18T19:41:20.211Z,17.87
2022-10-18T19:43:46.900Z,17.82
2022-10-18T19:46:13.437Z,17.98
2022-10-18T19:48:39.950Z,17.88
2022-10-18T19:51:09.447Z,17.80
2022-10-18T19:53:41.250Z,17.77
2022-10-18T19:56:08.611Z,17.72
2022-10-18T19:58:36.095Z,17.69
2022-10-18T20:01:02.692Z,17.63
2022-10-18T20:03:30.339Z,17.56
2022-10-18T20:05:58.461Z,17.57
2022-10-18T20:08:25.791Z,17.53
2022-10-18T20:10:52.585Z,17.48
2022-10-18T20:13:19.527Z,17.44
2022-10-18T20:15:51.061Z,17.39
2022-10-18T20:18:19.427Z,17.67
2022-10-18T20:20:48.270Z,17.48
2022-10-18T20:23:16.807Z,17.44
2022-10-18T20:25:54.553Z,17.35
2022-10-18T20:28:21.095Z,17.31
2022-10-18T20:30:47.567Z,17.29
2022-10-18T20:33:14.056Z,17.26
2022-10-18T20:35:40.691Z,17.26
2022-10-18T20:38:07.247Z,17.10
2022-10-18T20:40:33.763Z,17.14
2022-10-18T20:43:03.710Z,17.06
2022-10-18T20:45:30.649Z,16.99
2022-10-18T20:47:57.161Z,16.89
2022-10-18T20:50:23.743Z,16.79
2022-10-18T20:52:51.326Z,16.76
2022-10-18T20:55:18.790Z,16.76
2022-10-18T20:57:45.700Z,16.75
2022-10-18T21:00:13.037Z,16.67
2022-10-18T21:02:39.529Z,16.57
2022-10-18T21:05:06.195Z,16.53
2022-10-18T21:07:32.818Z,16.51
2022-10-18T21:09:59.472Z,16.49
2022-10-18T21:12:28.766Z,16.40
2022-10-18T21:14:55.698Z,16.46
2022-10-18T21:17:22.186Z,16.46
2022-10-18T21:19:48.765Z,16.40
2022-10-18T21:22:15.309Z,16.39
2022-10-18T21:24:42.485Z,16.34
2022-10-18T21:27:09.027Z,16.32
2022-10-18T21:29:35.564Z,16.22
2022-10-18T21:32:02.712Z,16.23
2022-10-18T21:34:29.234Z,16.18
2022-10-18T21:36:55.835Z,16.15
2022-10-18T21:41:55.555Z,16.05
2022-10-18T21:44:22.220Z,15.97
2022-10-18T21:46:48.882Z,15.94
2022-10-18T21:49:16.299Z,15.96
2022-10-18T21:51:43.371Z,15.89
2022-10-18T21:54:15.957Z,15.97
2022-10-18T21:56:46.260Z,15.86
2022-10-18T21:59:13.526Z,15.89
2022-10-18T22:01:40.728Z,15.87
2022-10-18T22:04:16.964Z,15.81
2022-10-18T22:06:43.512Z,15.76
2022-10-18T22:09:10.234Z,15.76
2022-10-18T22:11:44.410Z,15.71
2022-10-18T22:14:11.374Z,15.64
2022-10-18T22:16:39.930Z,15.62
2022-10-18T22:19:07.149Z,15.60
2022-10-18T22:25:47.841Z,15.53
2022-10-18T22:28:14.594Z,15.46
2022-10-18T22:30:43.210Z,15.48
2022-10-18T22:33:12.342Z,15.46
2022-10-18T22:35:38.898Z,15.42
2022-10-18T22:38:05.465Z,15.36
2022-10-18T22:40:32.026Z,15.13
2022-10-18T22:42:58.578Z,15.35
2022-10-18T22:45:25.162Z,15.40
2022-10-18T22:47:51.751Z,15.41
2022-10-18T22:50:19.329Z,15.38
2022-10-18T22:52:46.884Z,15.40
2022-10-18T22:55:13.424Z,15.39
2022-10-18T22:57:39.965Z,15.40
2022-10-18T23:00:07.163Z,15.42
2022-10-18T23:02:34.083Z,15.48
2022-10-18T23:05:00.892Z,15.42
2022-10-18T23:07:27.520Z,15.24
2022-10-18T23:09:53.977Z,15.41
2022-10-18T23:12:20.512Z,15.43
2022-10-18T23:14:47.003Z,15.44
2022-10-18T23:17:13.542Z,15.42
2022-10-18T23:19:40.223Z,15.41
2022-10-18T23:22:06.747Z,15.37
2022-10-18T23:24:33.276Z,15.41
2022-10-18T23:26:59.816Z,15.44
2022-10-18T23:29:26.329Z,15.48
2022-10-18T23:31:52.845Z,15.43
2022-10-18T23:34:19.406Z,15.51
2022-10-18T23:36:45.903Z,15.46
2022-10-18T23:39:13.578Z,15.38
2022-10-18T23:41:40.081Z,15.51
2022-10-18T23:44:08.945Z,15.41
2022-10-18T23:46:35.481Z,15.52
2022-10-18T23:49:01.978Z,15.47
2022-10-18T23:51:28.750Z,15.49
2022-10-18T23:53:55.559Z,15.44
2022-10-18T23:56:22.330Z,15.49
2022-10-18T23:58:49.236Z,15.54
